sensor_id;sensor_type;location;lat;lon;timestamp;pressure;altitude;pressure_sealevel;temperature;humidity
28911;BME280;16028;42.642;23.310;2023-04-28T00:01:10;94202.34;;;7.28;52.61
28911;BME280;16028;42.642;23.310;2023-04-28T00:03:37;94208.94;;;7.32;53.02
28911;BME280;16028;42.642;23.310;2023-04-28T00:06:04;94207.53;;;7.28;52.68
28911;BME280;16028;42.642;23.310;2023-04-28T00:08:31;94211.69;;;7.20;53.09
28911;BME280;16028;42.642;23.310;2023-04-28T00:10:58;94212.75;;;7.17;53.26
28911;BME280;16028;42.642;23.310;2023-04-28T00:13:25;94207.44;;;7.19;52.49
28911;BME280;16028;42.642;23.310;2023-04-28T00:15:53;94211.84;;;7.07;53.43
28911;BME280;16028;42.642;23.310;2023-04-28T00:18:20;94207.00;;;7.14;54.02
28911;BME280;16028;42.642;23.310;2023-04-28T00:20:47;94207.59;;;7.06;53.71
28911;BME280;16028;42.642;23.310;2023-04-28T00:23:14;94212.91;;;6.93;53.91
28911;BME280;16028;42.642;23.310;2023-04-28T00:25:41;94209.34;;;7.06;53.56
28911;BME280;16028;42.642;23.310;2023-04-28T00:28:07;94213.94;;;7.13;53.83
28911;BME280;16028;42.642;23.310;2023-04-28T00:30:34;94211.69;;;7.09;53.74
28911;BME280;16028;42.642;23.310;2023-04-28T00:33:02;94204.09;;;7.07;54.00
28911;BME280;16028;42.642;23.310;2023-04-28T00:35:30;94216.28;;;7.05;54.42
28911;BME280;16028;42.642;23.310;2023-04-28T00:37:56;94217.50;;;6.90;54.10
28911;BME280;16028;42.642;23.310;2023-04-28T00:40:31;94221.50;;;6.83;54.59
28911;BME280;16028;42.642;23.310;2023-04-28T00:42:58;94221.75;;;6.80;54.83
28911;BME280;16028;42.642;23.310;2023-04-28T00:45:25;94220.22;;;6.88;53.65
28911;BME280;16028;42.642;23.310;2023-04-28T00:47:52;94223.75;;;6.87;54.59
28911;BME280;16028;42.642;23.310;2023-04-28T00:50:21;94218.22;;;6.92;54.11
28911;BME280;16028;42.642;23.310;2023-04-28T00:52:48;94221.25;;;6.97;54.44
28911;BME280;16028;42.642;23.310;2023-04-28T00:55:15;94222.78;;;7.00;54.16
28911;BME280;16028;42.642;23.310;2023-04-28T00:57:42;94223.03;;;6.97;53.80
28911;BME280;16028;42.642;23.310;2023-04-28T01:00:10;94219.50;;;6.86;54.05
28911;BME280;16028;42.642;23.310;2023-04-28T01:02:37;94226.22;;;6.78;54.93
28911;BME280;16028;42.642;23.310;2023-04-28T01:05:04;94234.13;;;6.76;54.12
28911;BME280;16028;42.642;23.310;2023-04-28T01:07:32;94233.06;;;6.68;54.80
28911;BME280;16028;42.642;23.310;2023-04-28T01:10:00;94226.03;;;6.70;54.39
28911;BME280;16028;42.642;23.310;2023-04-28T01:12:26;94232.25;;;6.56;54.67
28911;BME280;16028;42.642;23.310;2023-04-28T01:14:53;94228.34;;;6.62;53.88
28911;BME280;16028;42.642;23.310;2023-04-28T01:17:20;94241.41;;;6.60;54.09
28911;BME280;16028;42.642;23.310;2023-04-28T01:19:47;94239.88;;;6.58;53.81
28911;BME280;16028;42.642;23.310;2023-04-28T01:22:14;94235.75;;;6.55;54.16
28911;BME280;16028;42.642;23.310;2023-04-28T01:24:42;94241.75;;;6.56;54.05
28911;BME280;16028;42.642;23.310;2023-04-28T01:27:09;94235.66;;;6.57;53.69
28911;BME280;16028;42.642;23.310;2023-04-28T01:29:35;94238.59;;;6.52;54.18
28911;BME280;16028;42.642;23.310;2023-04-28T01:32:03;94232.72;;;6.50;53.42
28911;BME280;16028;42.642;23.310;2023-04-28T01:34:29;94234.00;;;6.56;53.59
28911;BME280;16028;42.642;23.310;2023-04-28T01:36:56;94235.31;;;6.50;53.79
28911;BME280;16028;42.642;23.310;2023-04-28T01:39:23;94241.28;;;6.51;55.07
28911;BME280;16028;42.642;23.310;2023-04-28T01:41:51;94230.84;;;6.63;54.51
28911;BME280;16028;42.642;23.310;2023-04-28T01:44:17;94233.78;;;6.70;53.37
28911;BME280;16028;42.642;23.310;2023-04-28T01:46:44;94233.78;;;6.70;53.87
28911;BME280;16028;42.642;23.310;2023-04-28T01:49:11;94231.19;;;6.70;53.85
28911;BME280;16028;42.642;23.310;2023-04-28T01:51:38;94235.41;;;6.60;54.23
28911;BME280;16028;42.642;23.310;2023-04-28T01:54:05;94241.06;;;6.54;53.96
28911;BME280;16028;42.642;23.310;2023-04-28T01:56:31;94237.06;;;6.50;54.25
28911;BME280;16028;42.642;23.310;2023-04-28T01:58:59;94233.91;;;6.57;54.57
28911;BME280;16028;42.642;23.310;2023-04-28T02:01:26;94229.91;;;6.53;54.11
28911;BME280;16028;42.642;23.310;2023-04-28T02:03:53;94234.59;;;6.48;55.26
28911;BME280;16028;42.642;23.310;2023-04-28T02:06:20;94232.59;;;6.52;55.40
28911;BME280;16028;42.642;23.310;2023-04-28T02:08:47;94240.25;;;6.53;55.46
28911;BME280;16028;42.642;23.310;2023-04-28T02:11:13;94240.34;;;6.63;55.01
28911;BME280;16028;42.642;23.310;2023-04-28T02:13:40;94241.84;;;6.54;54.93
28911;BME280;16028;42.642;23.310;2023-04-28T02:16:08;94244.81;;;6.50;55.02
28911;BME280;16028;42.642;23.310;2023-04-28T02:18:35;94244.13;;;6.48;54.77
28911;BME280;16028;42.642;23.310;2023-04-28T02:21:07;94244.81;;;6.50;55.23
28911;BME280;16028;42.642;23.310;2023-04-28T02:23:34;94250.56;;;6.53;55.74
28911;BME280;16028;42.642;23.310;2023-04-28T02:26:01;94243.16;;;6.49;55.42
28911;BME280;16028;42.642;23.310;2023-04-28T02:28:28;94250.44;;;6.44;55.39
28911;BME280;16028;42.642;23.310;2023-04-28T02:31:02;94251.38;;;6.43;55.62
28911;BME280;16028;42.642;23.310;2023-04-28T02:33:30;94251.88;;;6.48;54.75
28911;BME280;16028;42.642;23.310;2023-04-28T02:35:58;94254.56;;;6.46;54.96
28911;BME280;16028;42.642;23.310;2023-04-28T02:38:24;94249.38;;;6.46;55.27
28911;BME280;16028;42.642;23.310;2023-04-28T02:40:56;94248.31;;;6.49;55.18
28911;BME280;16028;42.642;23.310;2023-04-28T02:43:23;94260.53;;;6.35;55.71
28911;BME280;16028;42.642;23.310;2023-04-28T02:45:50;94264.75;;;6.36;55.84
28911;BME280;16028;42.642;23.310;2023-04-28T02:48:17;94261.59;;;6.33;55.79
28911;BME280;16028;42.642;23.310;2023-04-28T02:50:45;94266.06;;;6.31;55.76
28911;BME280;16028;42.642;23.310;2023-04-28T02:53:12;94257.00;;;6.25;56.09
28911;BME280;16028;42.642;23.310;2023-04-28T02:55:39;94259.38;;;6.28;55.94
28911;BME280;16028;42.642;23.310;2023-04-28T02:58:06;94259.47;;;6.27;56.33
28911;BME280;16028;42.642;23.310;2023-04-28T03:00:32;94264.97;;;6.22;56.22
28911;BME280;16028;42.642;23.310;2023-04-28T03:02:59;94270.63;;;6.27;55.89
28911;BME280;16028;42.642;23.310;2023-04-28T03:05:26;94271.31;;;6.18;55.14
28911;BME280;16028;42.642;23.310;2023-04-28T03:07:54;94275.44;;;6.21;55.17
28911;BME280;16028;42.642;23.310;2023-04-28T03:10:21;94279.19;;;6.17;55.53
28911;BME280;16028;42.642;23.310;2023-04-28T03:12:47;94268.84;;;6.17;55.74
28911;BME280;16028;42.642;23.310;2023-04-28T03:15:14;94272.03;;;6.20;54.70
28911;BME280;16028;42.642;23.310;2023-04-28T03:17:41;94274.84;;;6.17;54.71
28911;BME280;16028;42.642;23.310;2023-04-28T03:20:09;94275.63;;;6.07;54.92
28911;BME280;16028;42.642;23.310;2023-04-28T03:22:35;94283.88;;;6.12;55.06
28911;BME280;16028;42.642;23.310;2023-04-28T03:25:04;94287.94;;;6.03;54.75
28911;BME280;16028;42.642;23.310;2023-04-28T03:27:31;94284.94;;;6.09;55.16
28911;BME280;16028;42.642;23.310;2023-04-28T03:29:58;94289.59;;;6.04;54.23
28911;BME280;16028;42.642;23.310;2023-04-28T03:32:25;94293.16;;;6.14;55.00
28911;BME280;16028;42.642;23.310;2023-04-28T03:34:51;94295.50;;;6.17;54.36
28911;BME280;16028;42.642;23.310;2023-04-28T03:37:18;94302.31;;;6.18;54.58
28911;BME280;16028;42.642;23.310;2023-04-28T03:39:45;94309.34;;;6.16;54.57
28911;BME280;16028;42.642;23.310;2023-04-28T03:42:13;94316.84;;;6.19;54.46
28911;BME280;16028;42.642;23.310;2023-04-28T03:44:39;94312.28;;;6.12;54.47
28911;BME280;16028;42.642;23.310;2023-04-28T03:47:06;94316.47;;;6.02;54.59
28911;BME280;16028;42.642;23.310;2023-04-28T03:49:33;94320.81;;;6.01;55.15
28911;BME280;16028;42.642;23.310;2023-04-28T03:52:00;94319.34;;;6.21;54.45
28911;BME280;16028;42.642;23.310;2023-04-28T03:54:28;94324.16;;;6.25;54.66
28911;BME280;16028;42.642;23.310;2023-04-28T03:56:55;94320.53;;;6.28;54.17
28911;BME280;16028;42.642;23.310;2023-04-28T03:59:23;94325.56;;;6.29;53.81
28911;BME280;16028;42.642;23.310;2023-04-28T04:01:50;94331.47;;;6.43;53.56
28911;BME280;16028;42.642;23.310;2023-04-28T04:04:17;94329.81;;;6.42;53.64
28911;BME280;16028;42.642;23.310;2023-04-28T04:06:43;94336.16;;;6.37;53.86
28911;BME280;16028;42.642;23.310;2023-04-28T04:09:10;94337.31;;;6.33;53.26
28911;BME280;16028;42.642;23.310;2023-04-28T04:11:37;94342.41;;;6.46;53.25
28911;BME280;16028;42.642;23.310;2023-04-28T04:14:03;94341.25;;;6.50;53.71
28911;BME280;16028;42.642;23.310;2023-04-28T04:16:32;94343.59;;;6.53;54.01
28911;BME280;16028;42.642;23.310;2023-04-28T04:18:58;94337.81;;;6.50;53.73
28911;BME280;16028;42.642;23.310;2023-04-28T04:21:25;94343.00;;;6.61;52.91
28911;BME280;16028;42.642;23.310;2023-04-28T04:23:52;94344.53;;;6.74;52.66
28911;BME280;16028;42.642;23.310;2023-04-28T04:26:18;94352.44;;;6.84;52.66
28911;BME280;16028;42.642;23.310;2023-04-28T04:28:46;94351.03;;;6.91;51.98
28911;BME280;16028;42.642;23.310;2023-04-28T04:31:13;94347.72;;;7.00;51.91
28911;BME280;16028;42.642;23.310;2023-04-28T04:33:41;94345.84;;;7.02;52.75
28911;BME280;16028;42.642;23.310;2023-04-28T04:36:08;94354.78;;;7.09;53.09
28911;BME280;16028;42.642;23.310;2023-04-28T04:38:34;94350.78;;;7.16;51.53
28911;BME280;16028;42.642;23.310;2023-04-28T04:41:01;94352.66;;;7.25;51.28
28911;BME280;16028;42.642;23.310;2023-04-28T04:43:28;94351.34;;;7.31;51.76
28911;BME280;16028;42.642;23.310;2023-04-28T04:45:55;94362.66;;;7.30;52.09
28911;BME280;16028;42.642;23.310;2023-04-28T04:48:21;94364.38;;;7.40;50.91
28911;BME280;16028;42.642;23.310;2023-04-28T04:50:49;94357.44;;;7.41;51.26
28911;BME280;16028;42.642;23.310;2023-04-28T04:53:16;94363.69;;;7.38;51.39
28911;BME280;16028;42.642;23.310;2023-04-28T04:55:43;94373.44;;;7.35;51.62
28911;BME280;16028;42.642;23.310;2023-04-28T04:58:09;94377.31;;;7.40;51.88
28911;BME280;16028;42.642;23.310;2023-04-28T05:00:37;94369.56;;;7.40;51.78
28911;BME280;16028;42.642;23.310;2023-04-28T05:03:04;94378.97;;;7.41;52.33
28911;BME280;16028;42.642;23.310;2023-04-28T05:05:31;94383.44;;;7.51;52.05
28911;BME280;16028;42.642;23.310;2023-04-28T05:08:00;94388.22;;;7.66;51.92
28911;BME280;16028;42.642;23.310;2023-04-28T05:10:28;94387.72;;;7.83;50.95
28911;BME280;16028;42.642;23.310;2023-04-28T05:12:54;94380.97;;;7.92;51.42
28911;BME280;16028;42.642;23.310;2023-04-28T05:15:21;94385.00;;;7.85;51.07
28911;BME280;16028;42.642;23.310;2023-04-28T05:17:48;94388.81;;;7.70;51.75
28911;BME280;16028;42.642;23.310;2023-04-28T05:20:15;94393.00;;;7.82;52.09
28911;BME280;16028;42.642;23.310;2023-04-28T05:22:41;94391.47;;;7.90;52.87
28911;BME280;16028;42.642;23.310;2023-04-28T05:25:10;94385.06;;;8.06;52.10
28911;BME280;16028;42.642;23.310;2023-04-28T05:27:36;94394.44;;;8.18;50.97
28911;BME280;16028;42.642;23.310;2023-04-28T05:30:06;94384.53;;;8.23;49.81
28911;BME280;16028;42.642;23.310;2023-04-28T05:32:33;94400.56;;;8.28;50.82
28911;BME280;16028;42.642;23.310;2023-04-28T05:35:00;94393.78;;;8.36;50.67
28911;BME280;16028;42.642;23.310;2023-04-28T05:37:27;94381.38;;;8.51;49.46
28911;BME280;16028;42.642;23.310;2023-04-28T05:39:54;94374.16;;;8.55;49.96
28911;BME280;16028;42.642;23.310;2023-04-28T05:42:22;94379.84;;;8.48;50.21
28911;BME280;16028;42.642;23.310;2023-04-28T05:44:49;94378.56;;;8.43;50.73
28911;BME280;16028;42.642;23.310;2023-04-28T05:47:15;94383.06;;;8.62;49.88
28911;BME280;16028;42.642;23.310;2023-04-28T05:49:42;94389.59;;;8.77;48.70
28911;BME280;16028;42.642;23.310;2023-04-28T05:52:09;94382.28;;;8.91;47.68
28911;BME280;16028;42.642;23.310;2023-04-28T05:54:35;94382.91;;;9.04;50.55
28911;BME280;16028;42.642;23.310;2023-04-28T05:57:02;94390.22;;;9.20;48.23
28911;BME280;16028;42.642;23.310;2023-04-28T05:59:30;94382.88;;;9.25;48.06
28911;BME280;16028;42.642;23.310;2023-04-28T06:01:57;94391.97;;;9.20;48.94
28911;BME280;16028;42.642;23.310;2023-04-28T06:04:24;94389.84;;;9.04;47.22
28911;BME280;16028;42.642;23.310;2023-04-28T06:06:51;94384.81;;;9.02;50.12
28911;BME280;16028;42.642;23.310;2023-04-28T06:09:18;94394.47;;;9.21;48.97
28911;BME280;16028;42.642;23.310;2023-04-28T06:11:45;94388.63;;;9.38;48.58
28911;BME280;16028;42.642;23.310;2023-04-28T06:14:11;94395.47;;;9.39;47.76
28911;BME280;16028;42.642;23.310;2023-04-28T06:16:39;94373.25;;;9.46;45.83
28911;BME280;16028;42.642;23.310;2023-04-28T06:19:06;94389.13;;;9.53;47.12
28911;BME280;16028;42.642;23.310;2023-04-28T06:21:33;94384.91;;;9.62;45.66
28911;BME280;16028;42.642;23.310;2023-04-28T06:24:00;94369.88;;;9.65;46.74
28911;BME280;16028;42.642;23.310;2023-04-28T06:26:27;94388.06;;;9.75;45.54
28911;BME280;16028;42.642;23.310;2023-04-28T06:28:53;94392.34;;;9.85;47.54
28911;BME280;16028;42.642;23.310;2023-04-28T06:31:20;94391.00;;;10.10;46.24
28911;BME280;16028;42.642;23.310;2023-04-28T06:33:48;94371.09;;;10.30;45.69
28911;BME280;16028;42.642;23.310;2023-04-28T06:36:15;94389.91;;;10.13;46.11
28911;BME280;16028;42.642;23.310;2023-04-28T06:38:42;94373.81;;;10.19;47.41
28911;BME280;16028;42.642;23.310;2023-04-28T06:41:09;94384.63;;;10.14;45.48
28911;BME280;16028;42.642;23.310;2023-04-28T06:43:36;94380.47;;;10.11;47.69
28911;BME280;16028;42.642;23.310;2023-04-28T06:46:03;94375.69;;;10.07;46.28
28911;BME280;16028;42.642;23.310;2023-04-28T06:48:30;94373.75;;;9.99;45.69
28911;BME280;16028;42.642;23.310;2023-04-28T06:50:58;94371.56;;;9.95;47.22
28911;BME280;16028;42.642;23.310;2023-04-28T06:53:24;94370.47;;;9.97;45.66
28911;BME280;16028;42.642;23.310;2023-04-28T06:55:51;94377.78;;;9.64;45.32
28911;BME280;16028;42.642;23.310;2023-04-28T06:58:18;94376.13;;;9.53;46.46
28911;BME280;16028;42.642;23.310;2023-04-28T07:00:45;94383.09;;;9.52;46.86
28911;BME280;16028;42.642;23.310;2023-04-28T07:03:12;94383.91;;;9.53;45.46
28911;BME280;16028;42.642;23.310;2023-04-28T07:05:39;94376.41;;;9.50;46.43
28911;BME280;16028;42.642;23.310;2023-04-28T07:08:07;94378.03;;;9.51;47.31
28911;BME280;16028;42.642;23.310;2023-04-28T07:10:34;94371.09;;;9.61;47.29
28911;BME280;16028;42.642;23.310;2023-04-28T07:13:01;94381.34;;;9.63;46.98
28911;BME280;16028;42.642;23.310;2023-04-28T07:15:28;94375.59;;;9.59;46.72
28911;BME280;16028;42.642;23.310;2023-04-28T07:17:55;94374.75;;;9.49;47.74
28911;BME280;16028;42.642;23.310;2023-04-28T07:20:22;94369.00;;;9.45;46.28
28911;BME280;16028;42.642;23.310;2023-04-28T07:22:49;94370.91;;;9.43;46.35
28911;BME280;16028;42.642;23.310;2023-04-28T07:25:17;94367.59;;;9.41;47.09
28911;BME280;16028;42.642;23.310;2023-04-28T07:27:44;94373.34;;;9.45;47.89
28911;BME280;16028;42.642;23.310;2023-04-28T07:30:11;94366.94;;;9.49;47.04
28911;BME280;16028;42.642;23.310;2023-04-28T07:32:38;94367.91;;;9.48;46.74
28911;BME280;16028;42.642;23.310;2023-04-28T07:35:06;94367.25;;;9.55;44.70
28911;BME280;16028;42.642;23.310;2023-04-28T07:37:33;94367.38;;;9.64;45.89
28911;BME280;16028;42.642;23.310;2023-04-28T07:40:00;94372.75;;;9.72;44.93
28911;BME280;16028;42.642;23.310;2023-04-28T07:42:28;94373.97;;;9.68;45.94
28911;BME280;16028;42.642;23.310;2023-04-28T07:44:55;94374.81;;;9.78;47.19
28911;BME280;16028;42.642;23.310;2023-04-28T07:47:23;94371.00;;;9.82;47.19
28911;BME280;16028;42.642;23.310;2023-04-28T07:49:51;94369.53;;;9.98;44.92
28911;BME280;16028;42.642;23.310;2023-04-28T07:52:17;94373.06;;;9.97;46.57
28911;BME280;16028;42.642;23.310;2023-04-28T07:54:44;94375.69;;;10.07;45.88
28911;BME280;16028;42.642;23.310;2023-04-28T07:57:11;94365.44;;;10.15;45.61
28911;BME280;16028;42.642;23.310;2023-04-28T07:59:39;94366.28;;;10.16;45.02
28911;BME280;16028;42.642;23.310;2023-04-28T08:02:05;94370.34;;;10.08;46.46
28911;BME280;16028;42.642;23.310;2023-04-28T08:04:32;94371.19;;;10.19;45.55
28911;BME280;16028;42.642;23.310;2023-04-28T08:07:01;94369.31;;;10.21;45.28
28911;BME280;16028;42.642;23.310;2023-04-28T08:09:28;94369.44;;;10.29;44.47
28911;BME280;16028;42.642;23.310;2023-04-28T08:11:55;94369.16;;;10.32;43.79
28911;BME280;16028;42.642;23.310;2023-04-28T08:14:23;94374.06;;;10.25;44.88
28911;BME280;16028;42.642;23.310;2023-04-28T08:16:51;94375.47;;;10.29;44.88
28911;BME280;16028;42.642;23.310;2023-04-28T08:19:18;94363.69;;;10.35;44.28
28911;BME280;16028;42.642;23.310;2023-04-28T08:21:44;94357.66;;;10.34;46.06
28911;BME280;16028;42.642;23.310;2023-04-28T08:24:11;94366.16;;;10.46;44.52
28911;BME280;16028;42.642;23.310;2023-04-28T08:26:38;94365.16;;;10.47;44.17
28911;BME280;16028;42.642;23.310;2023-04-28T08:29:05;94365.59;;;10.42;43.24
28911;BME280;16028;42.642;23.310;2023-04-28T08:31:32;94358.47;;;10.35;43.18
28911;BME280;16028;42.642;23.310;2023-04-28T08:34:00;94368.47;;;10.39;43.89
28911;BME280;16028;42.642;23.310;2023-04-28T08:36:26;94362.84;;;10.34;44.37
28911;BME280;16028;42.642;23.310;2023-04-28T08:38:57;94361.63;;;10.29;43.83
28911;BME280;16028;42.642;23.310;2023-04-28T08:41:25;94362.72;;;10.26;45.67
28911;BME280;16028;42.642;23.310;2023-04-28T08:43:53;94359.69;;;10.31;45.45
28911;BME280;16028;42.642;23.310;2023-04-28T08:46:21;94367.94;;;10.45;45.61
28911;BME280;16028;42.642;23.310;2023-04-28T08:48:50;94350.53;;;10.65;42.20
28911;BME280;16028;42.642;23.310;2023-04-28T08:51:25;94348.88;;;10.64;43.44
28911;BME280;16028;42.642;23.310;2023-04-28T08:53:54;94344.63;;;10.63;43.51
28911;BME280;16028;42.642;23.310;2023-04-28T08:56:23;94354.75;;;10.56;43.20
28911;BME280;16028;42.642;23.310;2023-04-28T08:58:53;94351.06;;;10.69;42.73
28911;BME280;16028;42.642;23.310;2023-04-28T09:01:20;94336.78;;;10.82;42.81
28911;BME280;16028;42.642;23.310;2023-04-28T09:03:47;94341.69;;;10.85;43.27
28911;BME280;16028;42.642;23.310;2023-04-28T09:06:14;94339.75;;;10.97;42.89
28911;BME280;16028;42.642;23.310;2023-04-28T09:08:43;94333.69;;;11.06;42.40
28911;BME280;16028;42.642;23.310;2023-04-28T09:11:10;94329.31;;;11.06;42.89
28911;BME280;16028;42.642;23.310;2023-04-28T09:13:38;94330.09;;;11.17;42.92
28911;BME280;16028;42.642;23.310;2023-04-28T09:16:06;94323.47;;;11.32;41.57
28911;BME280;16028;42.642;23.310;2023-04-28T09:18:33;94325.59;;;11.36;42.45
28911;BME280;16028;42.642;23.310;2023-04-28T09:21:04;94322.88;;;11.38;43.36
28911;BME280;16028;42.642;23.310;2023-04-28T09:23:31;94315.38;;;11.52;42.58
28911;BME280;16028;42.642;23.310;2023-04-28T09:26:01;94319.22;;;11.58;42.04
28911;BME280;16028;42.642;23.310;2023-04-28T09:28:29;94306.56;;;11.63;42.63
28911;BME280;16028;42.642;23.310;2023-04-28T09:30:55;94308.41;;;11.80;41.51
28911;BME280;16028;42.642;23.310;2023-04-28T09:33:22;94297.97;;;11.80;42.13
28911;BME280;16028;42.642;23.310;2023-04-28T09:35:49;94306.59;;;11.81;41.46
28911;BME280;16028;42.642;23.310;2023-04-28T09:38:18;94305.88;;;11.88;41.85
28911;BME280;16028;42.642;23.310;2023-04-28T09:40:52;94306.53;;;11.90;41.04
28911;BME280;16028;42.642;23.310;2023-04-28T09:43:24;94303.13;;;11.90;40.47
28911;BME280;16028;42.642;23.310;2023-04-28T10:03:15;94265.09;;;12.23;41.35
28911;BME280;16028;42.642;23.310;2023-04-28T10:05:43;94271.66;;;12.27;41.56
28911;BME280;16028;42.642;23.310;2023-04-28T10:08:11;94273.44;;;12.44;40.00
28911;BME280;16028;42.642;23.310;2023-04-28T10:10:38;94272.31;;;12.46;38.96
28911;BME280;16028;42.642;23.310;2023-04-28T10:13:07;94270.13;;;12.42;40.91
28911;BME280;16028;42.642;23.310;2023-04-28T10:15:34;94275.22;;;12.43;40.66
28911;BME280;16028;42.642;23.310;2023-04-28T10:18:03;94270.72;;;12.53;39.84
28911;BME280;16028;42.642;23.310;2023-04-28T10:20:32;94266.25;;;12.46;39.32
28911;BME280;16028;42.642;23.310;2023-04-28T10:23:09;94259.91;;;12.48;40.07
28911;BME280;16028;42.642;23.310;2023-04-28T10:25:47;94261.75;;;12.56;40.40
28911;BME280;16028;42.642;23.310;2023-04-28T10:28:16;94256.75;;;12.62;40.83
28911;BME280;16028;42.642;23.310;2023-04-28T10:31:09;94253.88;;;12.73;40.83
28911;BME280;16028;42.642;23.310;2023-04-28T10:33:39;94253.97;;;12.90;39.16
28911;BME280;16028;42.642;23.310;2023-04-28T10:36:08;94258.88;;;12.93;38.03
28911;BME280;16028;42.642;23.310;2023-04-28T10:39:07;94247.06;;;12.81;37.60
28911;BME280;16028;42.642;23.310;2023-04-28T10:41:30;94250.47;;;12.73;39.36
28911;BME280;16028;42.642;23.310;2023-04-28T10:43:57;94246.94;;;12.82;38.60
28911;BME280;16028;42.642;23.310;2023-04-28T10:46:26;94247.78;;;12.91;38.99
28911;BME280;16028;42.642;23.310;2023-04-28T10:48:54;94243.56;;;12.98;36.93
28911;BME280;16028;42.642;23.310;2023-04-28T10:51:32;94236.72;;;12.97;38.86
28911;BME280;16028;42.642;23.310;2023-04-28T10:54:18;94223.47;;;13.24;40.08
28911;BME280;16028;42.642;23.310;2023-04-28T10:57:19;94230.22;;;13.51;37.20
28911;BME280;16028;42.642;23.310;2023-04-28T10:59:49;94226.16;;;13.56;37.12
28911;BME280;16028;42.642;23.310;2023-04-28T11:02:39;94219.41;;;13.30;34.42
28911;BME280;16028;42.642;23.310;2023-04-28T11:05:13;94232.09;;;13.24;36.76
28911;BME280;16028;42.642;23.310;2023-04-28T11:11:15;94214.88;;;13.40;35.80
28911;BME280;16028;42.642;23.310;2023-04-28T11:13:43;94217.16;;;13.51;35.42
28911;BME280;16028;42.642;23.310;2023-04-28T11:16:16;94210.16;;;13.59;35.29
28911;BME280;16028;42.642;23.310;2023-04-28T11:18:55;94205.28;;;13.64;35.28
28911;BME280;16028;42.642;23.310;2023-04-28T11:21:24;94211.47;;;13.55;36.72
28911;BME280;16028;42.642;23.310;2023-04-28T11:23:53;94201.63;;;13.41;35.82
28911;BME280;16028;42.642;23.310;2023-04-28T11:26:20;94203.41;;;13.33;37.28
28911;BME280;16028;42.642;23.310;2023-04-28T11:28:50;94202.72;;;13.31;36.16
28911;BME280;16028;42.642;23.310;2023-04-28T11:31:19;94185.31;;;13.39;36.41
28911;BME280;16028;42.642;23.310;2023-04-28T11:33:52;94190.38;;;13.57;36.68
28911;BME280;16028;42.642;23.310;2023-04-28T11:36:27;94191.53;;;13.78;32.88
28911;BME280;16028;42.642;23.310;2023-04-28T11:38:55;94187.31;;;13.86;33.44
28911;BME280;16028;42.642;23.310;2023-04-28T11:41:22;94194.34;;;13.77;33.96
28911;BME280;16028;42.642;23.310;2023-04-28T11:43:49;94189.59;;;13.64;34.92
28911;BME280;16028;42.642;23.310;2023-04-28T11:46:17;94177.50;;;13.63;34.87
28911;BME280;16028;42.642;23.310;2023-04-28T11:48:46;94181.41;;;13.67;34.85
28911;BME280;16028;42.642;23.310;2023-04-28T11:51:35;94170.78;;;13.85;34.84
28911;BME280;16028;42.642;23.310;2023-04-28T11:54:05;94172.28;;;13.96;33.97
28911;BME280;16028;42.642;23.310;2023-04-28T11:56:36;94168.34;;;14.16;33.82
28911;BME280;16028;42.642;23.310;2023-04-28T11:59:05;94173.91;;;14.29;34.28
28911;BME280;16028;42.642;23.310;2023-04-28T12:01:34;94176.19;;;14.24;32.26
28911;BME280;16028;42.642;23.310;2023-04-28T12:04:05;94171.13;;;14.06;31.63
28911;BME280;16028;42.642;23.310;2023-04-28T12:06:32;94169.50;;;13.97;35.18
28911;BME280;16028;42.642;23.310;2023-04-28T12:08:59;94167.69;;;14.06;33.94
28911;BME280;16028;42.642;23.310;2023-04-28T12:11:30;94160.81;;;14.21;34.60
28911;BME280;16028;42.642;23.310;2023-04-28T12:14:07;94165.22;;;14.45;32.53
28911;BME280;16028;42.642;23.310;2023-04-28T12:16:42;94156.31;;;14.70;35.88
28911;BME280;16028;42.642;23.310;2023-04-28T12:19:10;94157.38;;;14.92;32.88
28911;BME280;16028;42.642;23.310;2023-04-28T12:21:38;94143.59;;;14.98;36.98
28911;BME280;16028;42.642;23.310;2023-04-28T12:24:15;94150.09;;;15.10;35.76
28911;BME280;16028;42.642;23.310;2023-04-28T12:26:44;94156.25;;;15.25;32.23
28911;BME280;16028;42.642;23.310;2023-04-28T12:29:35;94155.56;;;15.31;35.84
28911;BME280;16028;42.642;23.310;2023-04-28T12:32:05;94156.91;;;15.19;33.24
28911;BME280;16028;42.642;23.310;2023-04-28T12:34:32;94142.75;;;15.36;35.38
28911;BME280;16028;42.642;23.310;2023-04-28T12:36:59;94142.41;;;15.39;33.01
28911;BME280;16028;42.642;23.310;2023-04-28T12:39:27;94146.28;;;15.20;32.19
28911;BME280;16028;42.642;23.310;2023-04-28T12:41:55;94149.88;;;15.19;33.12
28911;BME280;16028;42.642;23.310;2023-04-28T12:44:23;94142.50;;;15.23;31.89
28911;BME280;16028;42.642;23.310;2023-04-28T12:46:50;94132.59;;;15.33;35.49
28911;BME280;16028;42.642;23.310;2023-04-28T12:49:17;94124.84;;;15.48;30.74
28911;BME280;16028;42.642;23.310;2023-04-28T12:51:44;94129.75;;;15.43;32.60
28911;BME280;16028;42.642;23.310;2023-04-28T12:54:10;94130.09;;;15.17;32.58
28911;BME280;16028;42.642;23.310;2023-04-28T12:56:38;94128.56;;;14.92;33.31
28911;BME280;16028;42.642;23.310;2023-04-28T12:59:06;94123.97;;;14.94;32.98
28911;BME280;16028;42.642;23.310;2023-04-28T13:01:33;94117.31;;;15.14;36.25
28911;BME280;16028;42.642;23.310;2023-04-28T13:04:00;94116.47;;;15.21;31.96
28911;BME280;16028;42.642;23.310;2023-04-28T13:06:27;94106.50;;;15.17;33.77
28911;BME280;16028;42.642;23.310;2023-04-28T13:08:54;94107.88;;;15.05;32.83
28911;BME280;16028;42.642;23.310;2023-04-28T13:11:21;94105.47;;;14.95;34.01
28911;BME280;16028;42.642;23.310;2023-04-28T13:13:51;94112.69;;;14.93;34.40
28911;BME280;16028;42.642;23.310;2023-04-28T13:16:19;94109.38;;;14.99;34.63
28911;BME280;16028;42.642;23.310;2023-04-28T13:18:46;94107.47;;;15.47;37.15
28911;BME280;16028;42.642;23.310;2023-04-28T13:21:14;94103.84;;;15.93;36.47